Time;durP1;ratioP1;P1;durP2;ratioP2;P2;SDS_P1;SDS_P2;PMS_P1;PMS_P2;Temp;Humidity;BMP_temperature;BMP_pressure;BME280_temperature;BME280_humidity;BME280_pressure;Samples;Min_cycle;Max_cycle;Signal;HPM_P1;HPM_P2
2022/06/21 00:01:01;;;;;;;7.00;3.90;;;15.70;99.90;;;;;;6283101;22;20402;-83
2022/06/21 00:03:27;;;;;;;6.40;4.77;;;15.70;99.90;;;;;;6283351;22;20360;-83
2022/06/21 00:05:53;;;;;;;7.10;4.17;;;15.60;99.90;;;;;;6283855;22;20171;-84
2022/06/21 00:08:32;;;;;;;8.33;4.13;;;15.60;99.90;;;;;;6282523;22;20395;-83
2022/06/21 00:10:58;;;;;;;5.33;3.70;;;15.50;99.90;;;;;;6283043;22;20752;-84
2022/06/21 00:13:28;;;;;;;5.90;4.40;;;15.50;99.90;;;;;;6282961;22;20375;-83
2022/06/21 00:15:56;;;;;;;5.93;3.70;;;15.40;99.90;;;;;;6255459;22;20866;-83
2022/06/21 00:18:24;;;;;;;6.97;4.30;;;15.40;99.90;;;;;;6281592;22;20396;-84
2022/06/21 00:20:50;;;;;;;10.07;4.40;;;15.40;99.90;;;;;;6255985;22;20811;-82
2022/06/21 00:23:28;;;;;;;7.37;4.20;;;15.40;99.90;;;;;;6283838;22;20373;-83
2022/06/21 00:25:54;;;;;;;5.50;3.97;;;15.30;99.90;;;;;;6283101;22;20406;-84
2022/06/21 00:28:21;;;;;;;6.47;4.70;;;15.30;99.90;;;;;;6255281;22;20415;-83
2022/06/21 00:30:48;;;;;;;11.43;4.20;;;15.20;99.90;;;;;;6255504;22;20383;-84
2022/06/21 00:33:17;;;;;;;8.50;4.07;;;15.20;99.90;;;;;;6283030;22;20449;-83
2022/06/21 00:35:46;;;;;;;6.63;4.50;;;15.20;99.90;;;;;;6255799;22;20394;-83
2022/06/21 00:38:14;;;;;;;7.00;5.03;;;15.10;99.90;;;;;;6283476;22;20466;-84
2022/06/21 00:40:40;;;;;;;6.83;4.43;;;15.10;99.90;;;;;;6282057;22;20768;-84
2022/06/21 00:43:14;;;;;;;6.40;3.90;;;15.10;99.90;;;;;;6282581;22;20422;-83
2022/06/21 00:45:42;;;;;;;7.00;4.37;;;15.10;99.90;;;;;;6282989;22;20682;-83
2022/06/21 00:48:17;;;;;;;9.40;4.60;;;15.00;99.90;;;;;;6255964;22;20384;-83
2022/06/21 00:50:50;;;;;;;7.03;4.97;;;15.00;99.90;;;;;;6282825;22;20480;-84
2022/06/21 00:53:20;;;;;;;10.63;4.83;;;14.90;99.90;;;;;;6282752;22;20402;-83
2022/06/21 00:56:08;;;;;;;8.33;4.63;;;14.90;99.90;;;;;;6256241;22;20411;-83
2022/06/21 00:58:34;;;;;;;5.27;4.77;;;14.80;99.90;;;;;;6282757;22;20421;-83
2022/06/21 01:01:24;;;;;;;5.37;4.67;;;14.80;99.90;;;;;;6282475;22;20439;-83
2022/06/21 01:04:00;;;;;;;6.40;4.70;;;14.80;99.90;;;;;;6255093;22;20206;-83
2022/06/21 01:06:35;;;;;;;9.87;5.03;;;14.70;1.00;;;;;;6282640;22;20362;-83
2022/06/21 01:09:11;;;;;;;8.77;5.50;;;14.60;1.00;;;;;;6283297;22;20366;-83
2022/06/21 01:11:44;;;;;;;5.90;4.40;;;14.60;1.00;;;;;;6254850;22;20996;-84
2022/06/21 01:14:11;;;;;;;5.63;5.13;;;14.50;1.00;;;;;;6283577;22;20399;-84
2022/06/21 01:16:38;;;;;;;6.20;5.20;;;14.40;1.00;;;;;;6255057;22;20723;-83
2022/06/21 01:19:17;;;;;;;6.63;5.97;;;14.20;1.00;;;;;;6282450;22;20375;-83
2022/06/21 01:21:48;;;;;;;7.10;5.40;;;14.00;56.60;;;;;;6256822;22;20489;-83
2022/06/21 01:24:20;;;;;;;6.03;5.30;;;14.00;14.00;;;;;;6282829;22;20359;-83
2022/06/21 01:26:58;;;;;;;5.77;5.17;;;13.90;38.60;;;;;;6281992;22;20367;-83
2022/06/21 01:29:26;;;;;;;8.43;4.70;;;13.90;87.50;;;;;;6255831;22;20389;-84
2022/06/21 01:31:55;;;;;;;8.40;4.70;;;13.90;94.70;;;;;;6283691;22;20399;-83
2022/06/21 01:34:23;;;;;;;8.30;5.03;;;13.90;99.90;;;;;;6283104;22;20425;-83
2022/06/21 01:37:00;;;;;;;10.67;5.07;;;13.90;99.90;;;;;;6283198;22;20407;-84
2022/06/21 01:39:37;;;;;;;7.00;5.70;;;13.90;97.10;;;;;;6282702;22;20396;-83
2022/06/21 01:42:09;;;;;;;5.67;4.60;;;13.90;99.90;;;;;;6283079;22;20510;-83
2022/06/21 01:44:41;;;;;;;10.10;5.17;;;13.90;99.90;;;;;;6283179;22;20749;-83
2022/06/21 01:47:13;;;;;;;9.50;5.30;;;13.90;99.90;;;;;;6255348;22;20383;-84
2022/06/21 01:49:44;;;;;;;6.63;4.47;;;13.90;99.90;;;;;;6282388;22;20355;-83
2022/06/21 01:52:14;;;;;;;8.93;4.90;;;13.90;99.90;;;;;;6283743;22;20460;-83
2022/06/21 01:54:44;;;;;;;10.50;5.70;;;14.00;99.90;;;;;;6283799;22;20496;-83
2022/06/21 01:57:13;;;;;;;4.77;4.20;;;13.90;99.90;;;;;;6257395;22;20370;-83
2022/06/21 01:59:42;;;;;;;4.90;4.40;;;13.90;99.90;;;;;;6284712;22;20401;-83
2022/06/21 02:02:49;;;;;;;7.83;4.90;;;13.90;99.90;;;;;;6257106;22;20419;-83
2022/06/21 02:05:19;;;;;;;4.83;4.43;;;13.90;99.90;;;;;;6284579;22;20374;-83
2022/06/21 02:07:53;;;;;;;7.17;4.90;;;13.90;99.90;;;;;;6257728;22;20716;-83
2022/06/21 02:10:26;;;;;;;8.60;5.17;;;13.90;99.90;;;;;;6256669;22;20425;-83
2022/06/21 02:13:07;;;;;;;14.87;5.87;;;13.90;99.90;;;;;;6284474;22;20383;-83
2022/06/21 02:15:42;;;;;;;6.80;5.40;;;13.90;99.90;;;;;;6257764;22;20379;-83
2022/06/21 02:18:11;;;;;;;5.30;4.80;;;13.90;99.90;;;;;;6284027;22;20373;-83
2022/06/21 02:20:53;;;;;;;6.27;4.73;;;13.90;99.90;;;;;;6284880;22;20371;-83
2022/06/21 02:23:22;;;;;;;12.43;4.80;;;13.90;99.90;;;;;;6256199;22;20383;-83
2022/06/21 02:25:49;;;;;;;7.23;5.30;;;13.80;99.90;;;;;;6284584;22;21089;-83
2022/06/21 02:28:17;;;;;;;7.27;5.47;;;13.80;99.90;;;;;;6283897;22;20439;-84
2022/06/21 02:30:43;;;;;;;8.40;4.67;;;13.80;99.90;;;;;;6283901;22;20411;-84
2022/06/21 02:33:17;;;;;;;9.00;5.30;;;13.80;99.90;;;;;;6257696;22;20399;-84
2022/06/21 02:35:51;;;;;;;6.47;4.90;;;13.70;99.90;;;;;;6283521;22;20782;-83
2022/06/21 02:38:22;;;;;;;10.47;5.67;;;13.70;99.90;;;;;;6283820;22;20405;-84
2022/06/21 02:40:55;;;;;;;8.33;5.50;;;13.60;99.90;;;;;;6258139;22;20384;-83
2022/06/21 02:43:37;;;;;;;5.73;5.23;;;13.50;99.90;;;;;;6284304;22;20368;-82
2022/06/21 02:46:31;;;;;;;6.67;5.83;;;13.40;99.90;;;;;;6284671;22;20375;-83
2022/06/21 02:49:01;;;;;;;10.77;5.80;;;13.30;99.90;;;;;;6283519;22;20410;-83
2022/06/21 02:51:30;;;;;;;9.77;6.07;;;13.20;99.90;;;;;;6284463;22;20434;-83
2022/06/21 02:54:08;;;;;;;8.70;6.53;;;13.10;99.90;;;;;;6257037;22;20379;-83
2022/06/21 02:56:44;;;;;;;8.90;5.80;;;13.10;1.00;;;;;;6284080;22;20355;-83
2022/06/21 02:59:10;;;;;;;10.47;6.37;;;13.10;1.00;;;;;;6285732;22;20359;-83
2022/06/21 03:01:46;;;;;;;8.13;6.10;;;13.10;1.00;;;;;;6283623;22;20439;-83
2022/06/21 03:04:20;;;;;;;8.53;6.20;;;13.10;1.00;;;;;;6257741;22;20386;-83
2022/06/21 03:06:47;;;;;;;9.27;5.80;;;13.00;1.00;;;;;;6283176;22;20420;-83
2022/06/21 03:09:19;;;;;;;8.90;6.13;;;13.00;1.00;;;;;;6284346;22;20398;-83
2022/06/21 03:11:47;;;;;;;7.43;6.70;;;13.00;1.00;;;;;;6283957;22;20438;-83
2022/06/21 03:14:20;;;;;;;9.00;7.00;;;13.00;1.00;;;;;;6283540;22;20379;-84
2022/06/21 03:16:46;;;;;;;8.70;6.60;;;13.00;1.00;;;;;;6283619;22;20371;-84
2022/06/21 03:19:29;;;;;;;13.43;6.67;;;13.00;1.00;;;;;;6257303;22;20383;-84
2022/06/21 03:21:55;;;;;;;6.77;5.80;;;13.00;1.00;;;;;;6283987;22;20406;-83
2022/06/21 03:24:24;;;;;;;11.53;6.47;;;13.00;1.00;;;;;;6284504;22;20367;-83
2022/06/21 03:27:01;;;;;;;14.67;7.20;;;13.00;1.00;;;;;;6283782;22;20405;-83
2022/06/21 03:29:29;;;;;;;15.30;7.37;;;13.10;1.00;;;;;;6283908;22;20363;-83
2022/06/21 03:31:54;;;;;;;7.63;6.17;;;13.10;1.00;;;;;;6256361;22;20708;-83
2022/06/21 03:34:22;;;;;;;7.27;6.57;;;13.00;1.00;;;;;;6284094;22;20379;-82
2022/06/21 03:36:49;;;;;;;8.60;7.00;;;13.00;1.00;;;;;;6282966;22;20152;-84
2022/06/21 03:39:19;;;;;;;9.70;6.70;;;13.00;1.00;;;;;;6284672;22;20446;-84
2022/06/21 03:41:47;;;;;;;9.80;7.07;;;13.00;1.00;;;;;;6256280;22;20402;-83
2022/06/21 03:44:12;;;;;;;8.87;6.23;;;13.00;1.00;;;;;;6285286;22;20417;-83
2022/06/21 03:47:07;;;;;;;7.90;7.03;;;13.10;1.00;;;;;;6256871;22;20383;-83
2022/06/21 03:49:44;;;;;;;9.60;6.83;;;13.00;98.60;;;;;;6283601;22;20246;-84
2022/06/21 03:52:41;;;;;;;8.93;6.63;;;13.00;25.20;;;;;;6283853;22;20390;-83
2022/06/21 03:55:22;;;;;;;9.90;6.60;;;13.00;25.00;;;;;;6284135;22;20394;-83
2022/06/21 03:58:34;;;;;;;11.10;6.70;;;13.10;87.60;;;;;;6283577;22;20383;-84
2022/06/21 04:01:05;;;;;;;9.33;6.80;;;13.20;40.50;;;;;;6235790;22;20408;-83
2022/06/21 04:03:51;;;;;;;7.30;6.10;;;13.20;1.00;;;;;;6257129;22;20374;-83
2022/06/21 04:06:36;;;;;;;10.83;6.87;;;13.30;1.00;;;;;;6282603;22;20383;-83
2022/06/21 04:09:07;;;;;;;10.70;6.47;;;13.40;1.00;;;;;;6255968;22;20447;-83
2022/06/21 04:11:45;;;;;;;8.37;6.40;;;13.40;1.00;;;;;;6284015;22;20427;-84
2022/06/21 04:14:23;;;;;;;12.47;6.00;;;13.50;1.00;;;;;;6283850;22;20810;-84
2022/06/21 04:17:15;;;;;;;9.20;6.40;;;13.60;1.00;;;;;;6284575;22;20359;-83
2022/06/21 04:19:49;;;;;;;8.83;6.70;;;13.70;1.00;;;;;;6286073;22;20687;-84
2022/06/21 04:22:46;;;;;;;10.10;6.47;;;13.70;1.00;;;;;;6285292;22;20391;-84
2022/06/21 04:25:35;;;;;;;8.80;6.50;;;13.80;1.00;;;;;;6263428;22;20400;-83
2022/06/21 04:28:10;;;;;;;9.47;6.20;;;13.90;1.00;;;;;;6255606;22;20453;-83
2022/06/21 04:30:46;;;;;;;10.23;7.70;;;13.90;1.00;;;;;;6282729;22;20414;-84
2022/06/21 04:33:20;;;;;;;8.33;6.70;;;13.90;1.00;;;;;;6283541;22;20398;-85
2022/06/21 04:35:54;;;;;;;8.33;6.90;;;13.90;1.00;;;;;;6283269;22;20427;-84
2022/06/21 04:38:29;;;;;;;9.90;6.80;;;13.90;1.00;;;;;;6255411;22;20938;-82
2022/06/21 04:41:51;;;;;;;8.17;7.03;;;14.00;1.00;;;;;;6282985;22;20417;-83
2022/06/21 04:44:27;;;;;;;9.80;6.57;;;14.00;1.00;;;;;;6159230;23;20867;-83
2022/06/21 04:47:07;;;;;;;7.97;6.83;;;14.00;1.00;;;;;;6158244;23;20378;-83
2022/06/21 04:49:42;;;;;;;17.57;7.67;;;14.10;1.00;;;;;;6226048;22;20389;-83
2022/06/21 04:52:35;;;;;;;10.60;7.57;;;14.10;1.00;;;;;;6283464;22;20458;-84
2022/06/21 04:55:03;;;;;;;7.90;7.10;;;14.20;1.00;;;;;;6266136;22;21076;-83
2022/06/21 04:57:31;;;;;;;9.77;7.03;;;14.20;1.00;;;;;;6283385;22;20373;-83
2022/06/21 05:00:09;;;;;;;17.20;7.63;;;14.30;1.00;;;;;;6281980;22;20378;-83
2022/06/21 05:02:43;;;;;;;13.73;7.93;;;14.40;1.00;;;;;;6255724;22;20460;-79
2022/06/21 05:05:15;;;;;;;9.80;7.20;;;14.50;1.00;;;;;;6238496;23;20375;-79
2022/06/21 05:07:57;;;;;;;15.80;8.23;;;14.60;1.00;;;;;;6212627;23;20362;-79
2022/06/21 05:10:28;;;;;;;15.20;7.87;;;14.70;1.00;;;;;;6214945;23;20408;-78
2022/06/21 05:12:57;;;;;;;17.23;8.37;;;14.70;1.00;;;;;;6228321;23;20407;-79
2022/06/21 05:15:26;;;;;;;12.90;8.00;;;14.70;1.00;;;;;;6243290;23;20400;-79
2022/06/21 05:18:00;;;;;;;12.80;7.67;;;14.80;1.00;;;;;;6244523;22;20389;-78
2022/06/21 05:20:34;;;;;;;15.23;7.10;;;14.90;1.00;;;;;;6243329;23;20506;-78
2022/06/21 05:23:04;;;;;;;10.47;7.60;;;15.10;1.00;;;;;;6244934;22;20446;-79
2022/06/21 05:25:37;;;;;;;17.27;8.10;;;15.20;1.00;;;;;;6244781;22;20357;-79
2022/06/21 05:28:30;;;;;;;11.10;6.47;;;15.40;1.00;;;;;;6242511;23;20393;-79
2022/06/21 05:30:59;;;;;;;9.27;6.90;;;15.50;99.90;;;;;;6246566;22;20412;-79
2022/06/21 05:33:46;;;;;;;15.97;7.90;;;15.70;99.90;;;;;;6245978;22;20405;-79
2022/06/21 05:36:17;;;;;;;8.63;7.20;;;15.80;99.90;;;;;;6245390;22;20392;-78
2022/06/21 05:38:55;;;;;;;15.17;8.17;;;16.00;99.90;;;;;;6245794;22;20385;-78
2022/06/21 05:41:30;;;;;;;12.80;7.63;;;16.10;99.90;;;;;;6243350;23;20385;-78
2022/06/21 05:44:27;;;;;;;16.30;8.23;;;16.30;99.90;;;;;;6245792;22;20385;-79
2022/06/21 05:46:59;;;;;;;14.03;7.57;;;16.50;99.90;;;;;;6243535;23;20451;-80
2022/06/21 05:49:31;;;;;;;11.67;8.20;;;16.70;24.60;;;;;;6245284;22;20355;-81
2022/06/21 05:52:01;;;;;;;13.90;7.27;;;16.90;1.00;;;;;;6243898;22;20394;-78
2022/06/21 05:54:32;;;;;;;11.70;7.40;;;17.00;1.00;;;;;;6245551;22;20572;-79
2022/06/21 05:57:01;;;;;;;10.90;7.70;;;17.20;1.00;;;;;;6245047;22;20372;-79
2022/06/21 05:59:26;;;;;;;13.10;6.80;;;17.20;1.00;;;;;;6243724;23;20774;-78
2022/06/21 06:01:55;;;;;;;17.67;8.13;;;17.40;1.00;;;;;;6245360;22;20364;-79
2022/06/21 06:04:26;;;;;;;14.43;7.17;;;17.60;1.00;;;;;;6245335;23;20141;-80
2022/06/21 06:06:54;;;;;;;14.53;7.97;;;17.90;1.00;;;;;;6218447;23;20431;-78
2022/06/21 06:09:26;;;;;;;13.73;7.50;;;18.20;99.90;;;;;;6219599;23;20477;-78
2022/06/21 06:12:06;;;;;;;24.70;6.70;;;18.60;99.90;;;;;;6219383;22;20428;-78
2022/06/21 06:14:52;;;;;;;10.83;6.13;;;19.20;99.90;;;;;;6218818;23;20381;-78
2022/06/21 06:17:36;;;;;;;14.03;6.50;;;20.30;99.90;;;;;;6219504;23;20426;-79
2022/06/21 06:20:24;;;;;;;11.50;6.10;;;23.20;99.90;;;;;;6246774;23;20425;-79
2022/06/21 06:23:02;;;;;;;11.00;5.63;;;27.40;99.90;;;;;;6219943;23;20408;-80
2022/06/21 06:25:27;;;;;;;11.20;5.57;;;30.50;99.90;;;;;;6220121;23;20380;-82
2022/06/21 06:28:06;;;;;;;16.13;5.33;;;32.30;99.90;;;;;;6220444;23;20390;-80
2022/06/21 06:30:42;;;;;;;9.60;4.80;;;33.60;99.90;;;;;;6247429;23;20527;-81
2022/06/21 06:33:24;;;;;;;14.83;5.20;;;35.50;99.90;;;;;;6220518;23;20492;-80
2022/06/21 06:35:51;;;;;;;9.20;4.13;;;36.40;99.90;;;;;;6248043;23;20356;-81
2022/06/21 06:38:18;;;;;;;10.03;4.53;;;36.80;99.90;;;;;;6248418;23;20372;-81
2022/06/21 06:40:53;;;;;;;16.90;4.40;;;38.50;99.90;;;;;;6247066;23;20384;-79
2022/06/21 06:43:31;;;;;;;7.07;3.40;;;41.00;99.90;;;;;;6246276;22;20407;-80
2022/06/21 06:45:58;;;;;;;10.10;4.60;;;43.20;99.90;;;;;;6246006;23;20806;-79
2022/06/21 06:48:32;;;;;;;10.20;3.90;;;43.50;99.90;;;;;;6219663;23;20380;-79
2022/06/21 06:51:34;;;;;;;12.00;4.33;;;43.50;99.90;;;;;;6218594;23;20399;-80
2022/06/21 06:54:02;;;;;;;9.90;4.40;;;45.10;99.90;;;;;;6246894;22;20873;-79
2022/06/21 06:56:36;;;;;;;9.37;4.23;;;45.10;97.20;;;;;;6246137;23;20368;-80
2022/06/21 06:59:09;;;;;;;9.07;3.77;;;45.00;92.30;;;;;;6246187;23;20829;-80
2022/06/21 07:01:50;;;;;;;9.13;3.47;;;45.80;87.90;;;;;;6246434;23;20415;-80
2022/06/21 07:04:18;;;;;;;8.13;3.67;;;46.90;81.00;;;;;;6246444;23;20895;-80
2022/06/21 07:06:50;;;;;;;9.77;3.83;;;47.40;74.40;;;;;;6219159;23;20407;-79
2022/06/21 07:09:30;;;;;;;13.63;4.10;;;48.70;71.50;;;;;;6219859;23;20718;-79
2022/06/21 07:12:01;;;;;;;8.63;3.10;;;46.60;59.20;;;;;;6219634;22;20376;-80
2022/06/21 07:14:28;;;;;;;8.30;3.13;;;48.80;61.40;;;;;;6219382;23;20420;-79
2022/06/21 07:17:16;;;;;;;9.53;3.20;;;50.60;60.80;;;;;;6246053;23;20458;-80
2022/06/21 07:19:42;;;;;;;7.50;3.17;;;51.30;55.70;;;;;;6174724;23;21097;-80
2022/06/21 07:22:31;;;;;;;9.90;3.30;;;49.90;50.00;;;;;;6219574;22;20438;-80
2022/06/21 07:25:33;;;;;;;9.57;3.50;;;50.30;46.80;;;;;;6219070;23;20156;-79
2022/06/21 07:28:04;;;;;;;9.53;3.23;;;45.10;45.30;;;;;;6122795;23;20398;-78
2022/06/21 07:30:38;;;;;;;6.53;3.70;;;42.50;29.80;;;;;;6224597;23;20392;-79
2022/06/21 07:33:15;;;;;;;8.40;3.30;;;42.80;32.40;;;;;;6218707;23;20418;-79
2022/06/21 07:35:45;;;;;;;9.57;3.07;;;44.70;36.50;;;;;;6246439;23;20814;-80
2022/06/21 07:38:14;;;;;;;8.03;3.30;;;46.50;38.40;;;;;;6245674;23;20365;-80
2022/06/21 07:41:36;;;;;;;6.13;3.33;;;46.60;37.50;;;;;;6246355;23;20762;-79
2022/06/21 07:44:34;;;;;;;4.60;2.60;;;47.60;36.70;;;;;;6122877;23;20410;-80
2022/06/21 07:47:05;;;;;;;9.83;3.80;;;49.00;37.30;;;;;;6207869;23;20722;-80
2022/06/21 07:49:37;;;;;;;6.17;3.00;;;50.40;36.70;;;;;;6246048;23;20905;-79
2022/06/21 07:52:12;;;;;;;7.90;2.80;;;47.70;30.00;;;;;;6245450;22;20754;-79
2022/06/21 07:54:45;;;;;;;7.77;3.37;;;49.20;32.90;;;;;;6245544;23;20443;-79
2022/06/21 07:57:16;;;;;;;8.00;3.00;;;51.20;34.90;;;;;;6219197;23;20447;-79
2022/06/21 07:59:49;;;;;;;4.40;2.70;;;49.70;30.20;;;;;;6245143;23;20360;-80
2022/06/21 08:08:28;;;;;;;6.40;2.57;;;54.70;34.20;;;;;;6245604;23;20214;-80
2022/06/21 08:11:01;;;;;;;9.70;3.27;;;51.80;27.60;;;;;;6218805;23;20763;-78
2022/06/21 08:13:29;;;;;;;4.83;2.50;;;48.00;21.10;;;;;;6217751;23;20456;-79
2022/06/21 08:16:08;;;;;;;10.73;3.03;;;46.40;20.10;;;;;;6244586;23;20375;-78
2022/06/21 08:19:00;;;;;;;6.20;2.70;;;44.40;17.50;;;;;;6217189;23;20375;-79
2022/06/21 08:21:34;;;;;;;10.97;3.30;;;42.50;15.50;;;;;;6187819;23;20928;-78
2022/06/21 08:24:14;;;;;;;3.77;2.77;;;41.30;15.00;;;;;;6216880;23;20408;-79
2022/06/21 08:26:47;;;;;;;8.73;2.97;;;40.40;15.40;;;;;;6243780;23;20360;-79
2022/06/21 08:29:22;;;;;;;6.40;2.97;;;40.10;15.40;;;;;;6216951;23;20826;-79
2022/06/21 08:31:55;;;;;;;5.57;3.00;;;39.20;15.70;;;;;;6216831;22;20419;-80
2022/06/21 08:34:28;;;;;;;9.67;3.03;;;38.40;15.00;;;;;;6243903;23;20352;-80
2022/06/21 08:36:56;;;;;;;7.93;2.87;;;38.90;16.50;;;;;;6216853;23;20368;-80
2022/06/21 08:39:54;;;;;;;6.40;2.57;;;39.50;19.00;;;;;;6244309;23;20372;-78
2022/06/21 08:42:34;;;;;;;5.97;2.87;;;39.70;19.60;;;;;;6217358;23;20404;-78
2022/06/21 08:45:40;;;;;;;7.03;2.10;;;39.60;20.00;;;;;;6244552;23;20364;-78
2022/06/21 08:48:35;;;;;;;8.10;2.87;;;40.00;20.40;;;;;;6243520;23;20383;-79
2022/06/21 08:51:19;;;;;;;5.10;2.70;;;40.00;20.80;;;;;;6244324;23;20407;-78
2022/06/21 08:54:00;;;;;;;5.87;2.70;;;40.30;21.50;;;;;;6217651;23;20744;-80
2022/06/21 08:56:41;;;;;;;7.70;2.93;;;42.10;24.90;;;;;;6217344;23;20422;-79
2022/06/21 08:59:35;;;;;;;4.40;2.60;;;44.00;27.10;;;;;;6218473;23;20364;-79
2022/06/21 09:02:34;;;;;;;8.10;2.90;;;44.20;25.30;;;;;;6216986;22;20364;-79
2022/06/21 09:05:22;;;;;;;5.70;2.90;;;43.50;23.80;;;;;;6245089;23;20367;-77
2022/06/21 09:08:21;;;;;;;5.10;2.60;;;41.90;20.30;;;;;;6245934;23;20460;-79
2022/06/21 09:11:03;;;;;;;6.90;2.90;;;41.70;20.70;;;;;;6219111;23;20420;-78
2022/06/21 09:13:56;;;;;;;6.73;3.03;;;40.80;19.10;;;;;;6246244;22;20449;-78
2022/06/21 09:16:41;;;;;;;3.47;3.17;;;39.50;18.10;;;;;;6245871;23;20418;-78
2022/06/21 09:19:12;;;;;;;4.53;3.20;;;39.40;18.30;;;;;;6246012;23;20364;-78
2022/06/21 09:21:44;;;;;;;5.37;3.30;;;40.50;21.10;;;;;;6245947;23;20356;-78
2022/06/21 09:24:39;;;;;;;4.07;3.07;;;39.70;19.60;;;;;;6245517;22;20396;-79
2022/06/21 09:27:26;;;;;;;6.00;3.70;;;38.30;16.60;;;;;;6218923;23;20376;-78
2022/06/21 09:30:12;;;;;;;4.20;3.80;;;36.20;14.50;;;;;;6246240;23;20465;-80
2022/06/21 09:32:52;;;;;;;4.80;3.13;;;34.60;13.60;;;;;;6247015;22;20398;-80
2022/06/21 09:35:40;;;;;;;4.60;3.53;;;34.20;14.10;;;;;;6220473;23;20745;-79
2022/06/21 09:38:35;;;;;;;6.17;3.90;;;34.10;15.40;;;;;;6246687;23;20379;-80
2022/06/21 09:41:05;;;;;;;8.10;3.30;;;34.40;17.10;;;;;;6220625;23;20462;-79
2022/06/21 09:44:00;;;;;;;7.33;3.10;;;35.70;20.50;;;;;;6248218;22;20787;-80
2022/06/21 09:46:34;;;;;;;6.90;3.10;;;37.40;24.40;;;;;;6246995;23;20434;-79
2022/06/21 09:49:24;;;;;;;4.20;2.60;;;38.30;25.40;;;;;;6247854;23;20413;-80
2022/06/21 09:52:07;;;;;;;9.93;3.40;;;38.60;24.60;;;;;;6220089;22;20551;-80
2022/06/21 09:54:39;;;;;;;6.07;3.53;;;38.20;24.50;;;;;;6221231;23;20838;-79
2022/06/21 09:57:12;;;;;;;4.27;2.63;;;38.20;23.40;;;;;;6246949;23;20363;-79
2022/06/21 09:59:41;;;;;;;8.30;3.03;;;37.60;22.10;;;;;;6247832;23;20362;-81
2022/06/21 10:02:41;;;;;;;4.43;2.53;;;36.50;19.90;;;;;;6247252;22;20438;-79
2022/06/21 10:05:24;;;;;;;8.83;3.60;;;35.00;17.30;;;;;;6240521;23;20443;-80
2022/06/21 10:08:07;;;;;;;8.47;4.10;;;33.60;14.50;;;;;;6246648;23;20371;-80
2022/06/21 10:11:00;;;;;;;5.70;3.23;;;32.50;13.30;;;;;;6219939;23;20905;-79
2022/06/21 10:13:44;;;;;;;5.30;3.60;;;32.00;13.10;;;;;;6247171;22;20391;-80
2022/06/21 10:16:28;;;;;;;8.10;3.40;;;31.20;13.00;;;;;;6246308;23;20388;-79
2022/06/21 10:19:23;;;;;;;6.17;3.80;;;30.50;12.70;;;;;;6246083;23;20838;-80
2022/06/21 10:22:02;;;;;;;5.03;3.77;;;29.90;13.00;;;;;;6246353;22;20352;-80
2022/06/21 10:25:11;;;;;;;6.60;3.83;;;30.20;15.20;;;;;;6246576;23;20378;-79
2022/06/21 10:27:45;;;;;;;7.60;3.30;;;30.40;16.40;;;;;;6233156;23;20909;-80
2022/06/21 10:30:36;;;;;;;4.37;3.30;;;31.10;19.30;;;;;;6221106;23;20379;-80
2022/06/21 10:33:10;;;;;;;7.70;3.70;;;31.20;20.10;;;;;;6247870;22;20399;-79
2022/06/21 10:35:54;;;;;;;4.70;3.83;;;31.10;30.00;;;;;;6248095;23;20376;-80
2022/06/21 10:38:22;;;;;;;8.20;3.80;;;30.70;20.00;;;;;;6221853;23;20380;-80
2022/06/21 10:40:51;;;;;;;7.00;4.60;;;30.20;19.40;;;;;;6247784;23;20423;-80
2022/06/21 10:43:29;;;;;;;5.53;3.93;;;29.70;19.60;;;;;;6247551;22;20451;-79
2022/06/21 10:45:58;;;;;;;8.83;3.87;;;29.10;18.70;;;;;;6246652;23;20368;-80
2022/06/21 10:48:45;;;;;;;8.70;5.10;;;28.50;17.90;;;;;;6247276;23;20396;-79
2022/06/21 10:51:17;;;;;;;4.87;3.53;;;27.90;17.80;;;;;;6220318;23;20463;-79
2022/06/21 10:54:04;;;;;;;5.00;4.37;;;27.60;17.40;;;;;;6247557;22;20396;-79
2022/06/21 11:02:54;;;;;;;4.70;3.10;;;27.60;21.20;;;;;;6249542;22;20418;-80
2022/06/21 11:05:36;;;;;;;8.37;4.20;;;30.50;28.80;;;;;;6220378;23;20390;-80
2022/06/21 11:08:43;;;;;;;5.40;3.33;;;32.30;33.80;;;;;;6247079;23;20383;-81
2022/06/21 11:11:32;;;;;;;6.93;3.90;;;32.50;34.10;;;;;;6190209;23;20380;-80
2022/06/21 11:14:20;;;;;;;9.10;3.57;;;32.30;32.80;;;;;;6185555;23;20404;-81
2022/06/21 11:16:54;;;;;;;7.83;3.50;;;32.20;31.20;;;;;;6247133;23;20360;-81
2022/06/21 11:19:33;;;;;;;11.00;3.30;;;32.00;30.60;;;;;;6247206;23;20375;-80
2022/06/21 11:22:24;;;;;;;4.90;3.60;;;32.00;30.20;;;;;;6247118;22;20747;-80
2022/06/21 11:24:52;;;;;;;8.83;4.40;;;31.60;29.50;;;;;;6220100;23;20391;-81
2022/06/21 11:27:29;;;;;;;9.67;4.03;;;31.60;28.80;;;;;;6246466;23;20377;-81
2022/06/21 11:30:17;;;;;;;6.57;3.70;;;31.60;28.90;;;;;;6220494;23;20453;-81
2022/06/21 11:33:11;;;;;;;7.53;4.10;;;32.20;30.60;;;;;;6246914;22;20390;-80
2022/06/21 11:36:11;;;;;;;6.87;3.60;;;33.10;32.40;;;;;;6247157;23;20364;-81
2022/06/21 11:38:55;;;;;;;5.20;3.43;;;34.00;34.40;;;;;;6220867;23;20394;-80
2022/06/21 11:45:04;;;;;;;8.87;4.07;;;33.90;32.20;;;;;;6247090;23;20352;-79
2022/06/21 11:47:57;;;;;;;7.00;3.27;;;33.60;30.80;;;;;;6246835;23;20363;-80
2022/06/21 11:50:36;;;;;;;5.73;3.63;;;33.30;30.20;;;;;;6246832;23;20418;-80
2022/06/21 11:53:13;;;;;;;6.23;3.70;;;32.60;27.80;;;;;;6246972;22;20406;-80
2022/06/21 11:56:20;;;;;;;7.03;3.80;;;32.10;27.00;;;;;;6219658;23;20371;-80
2022/06/21 11:59:05;;;;;;;10.43;3.00;;;31.80;26.50;;;;;;6178939;23;20392;-80
2022/06/21 12:01:40;;;;;;;7.07;3.70;;;31.50;26.00;;;;;;6219316;23;20458;-80
2022/06/21 12:04:27;;;;;;;8.93;3.17;;;31.30;25.80;;;;;;6246453;22;20407;-80
2022/06/21 12:07:05;;;;;;;6.33;3.80;;;31.50;26.30;;;;;;6245726;23;20467;-80
2022/06/21 12:09:39;;;;;;;9.17;3.50;;;31.50;26.00;;;;;;6219103;23;20410;-81
2022/06/21 12:12:36;;;;;;;5.73;3.03;;;32.80;30.20;;;;;;6219051;22;20388;-81
2022/06/21 12:15:40;;;;;;;7.60;4.13;;;34.80;35.70;;;;;;6220038;23;20369;-80
2022/06/21 12:18:12;;;;;;;7.00;3.40;;;35.90;36.70;;;;;;6219449;23;20384;-80
2022/06/21 12:21:07;;;;;;;5.27;2.90;;;36.70;36.90;;;;;;6245625;23;20423;-80
2022/06/21 12:23:58;;;;;;;6.27;2.80;;;37.10;36.20;;;;;;6239698;22;20766;-81
2022/06/21 12:26:26;;;;;;;3.40;2.87;;;37.10;34.30;;;;;;6245958;23;20360;-81
2022/06/21 12:28:55;;;;;;;6.90;2.90;;;36.80;33.00;;;;;;6245459;23;20433;-81
2022/06/21 12:31:29;;;;;;;5.50;2.93;;;36.10;31.30;;;;;;6245485;23;20887;-82
2022/06/21 12:34:28;;;;;;;7.67;3.90;;;35.80;30.20;;;;;;6218914;23;20400;-80
2022/06/21 12:37:01;;;;;;;3.70;3.10;;;35.40;28.80;;;;;;6218289;23;20408;-80
2022/06/21 12:39:29;;;;;;;5.87;3.07;;;36.00;30.80;;;;;;6218677;23;20433;-78
2022/06/21 12:42:13;;;;;;;5.90;3.30;;;36.90;33.30;;;;;;6243898;22;20909;-79
2022/06/21 12:45:16;;;;;;;4.50;2.67;;;37.40;33.30;;;;;;6245695;23;20360;-78
2022/06/21 12:48:11;;;;;;;6.50;3.37;;;37.10;31.40;;;;;;6243647;23;20366;-79
2022/06/21 12:50:36;;;;;;;3.03;2.63;;;36.60;28.70;;;;;;6243544;23;20364;-79
2022/06/21 12:53:40;;;;;;;5.00;2.97;;;36.00;26.80;;;;;;6244907;22;20454;-79
2022/06/21 12:56:19;;;;;;;4.47;2.63;;;35.60;26.00;;;;;;6217651;23;20148;-80
2022/06/21 12:59:14;;;;;;;5.53;3.37;;;35.30;26.30;;;;;;6218316;23;20390;-78
2022/06/21 13:02:12;;;;;;;4.90;2.90;;;34.70;24.20;;;;;;6244378;23;20400;-78
2022/06/21 13:04:45;;;;;;;5.60;2.90;;;34.10;23.70;;;;;;6244607;23;21145;-79
2022/06/21 13:07:28;;;;;;;3.03;2.37;;;33.50;22.90;;;;;;6244272;23;20352;-79
2022/06/21 13:10:01;;;;;;;3.50;2.37;;;33.40;23.20;;;;;;6216988;23;20830;-78
2022/06/21 13:12:27;;;;;;;6.73;3.60;;;33.40;23.40;;;;;;6244473;22;20830;-78
2022/06/21 13:15:14;;;;;;;4.37;2.90;;;33.20;23.40;;;;;;6244270;23;20391;-79
2022/06/21 13:18:04;;;;;;;3.90;3.03;;;33.10;23.00;;;;;;6244173;23;20198;-78
2022/06/21 13:20:51;;;;;;;5.80;2.87;;;32.80;23.20;;;;;;6217599;23;20465;-78
2022/06/21 13:23:53;;;;;;;6.53;3.20;;;32.70;24.10;;;;;;6217779;23;20757;-78
2022/06/21 13:26:56;;;;;;;4.57;3.57;;;32.50;24.10;;;;;;6244709;23;20417;-77
2022/06/21 13:29:35;;;;;;;5.63;2.73;;;32.30;23.60;;;;;;6244299;23;20864;-78
2022/06/21 13:32:06;;;;;;;3.93;3.33;;;32.20;23.80;;;;;;6244203;22;20366;-79
2022/06/21 13:34:48;;;;;;;3.87;2.80;;;32.10;23.40;;;;;;6217020;23;20361;-78
2022/06/21 13:37:29;;;;;;;3.67;2.83;;;32.20;23.90;;;;;;6216518;23;20379;-79
2022/06/21 13:40:16;;;;;;;7.70;3.17;;;32.20;24.20;;;;;;6244859;23;20379;-78
2022/06/21 13:43:08;;;;;;;4.70;3.13;;;32.40;25.30;;;;;;6243765;22;20399;-80
2022/06/21 13:45:54;;;;;;;5.83;2.63;;;32.50;26.20;;;;;;6216485;23;20434;-78
2022/06/21 13:48:28;;;;;;;3.97;3.00;;;32.40;26.50;;;;;;6216414;23;20933;-79
2022/06/21 13:51:00;;;;;;;3.80;2.50;;;32.40;25.90;;;;;;6244218;23;20371;-79
2022/06/21 13:53:48;;;;;;;6.83;3.40;;;32.40;25.50;;;;;;6218339;23;20909;-78
2022/06/21 13:56:23;;;;;;;4.37;2.70;;;32.50;25.80;;;;;;6245141;23;20374;-79
2022/06/21 13:59:14;;;;;;;4.40;3.23;;;32.10;24.80;;;;;;6218405;23;20703;-79
2022/06/21 14:01:53;;;;;;;4.40;2.90;;;31.60;24.20;;;;;;6245429;23;20499;-79